createdAt,value
2017-08-25T03:31:37.832Z,6.00
2017-08-25T03:34:05.493Z,6.80
2017-08-25T03:36:33.165Z,8.67
2017-08-25T03:39:00.784Z,6.43
2017-08-25T03:41:28.455Z,7.10
2017-08-25T03:43:56.116Z,6.50
2017-08-25T03:46:24.495Z,6.90
2017-08-25T03:48:52.162Z,7.50
2017-08-25T03:51:20.185Z,5.87
2017-08-25T03:53:47.815Z,6.17
2017-08-25T03:56:15.469Z,7.53
2017-08-25T03:58:43.130Z,6.07
2017-08-25T04:01:10.796Z,7.63
2017-08-25T04:03:38.478Z,6.10
2017-08-25T04:06:06.133Z,5.33
2017-08-25T04:08:34.216Z,6.23
2017-08-25T04:11:01.850Z,5.87
2017-08-25T04:13:29.498Z,6.23
2017-08-25T04:15:57.255Z,6.30
2017-08-25T04:18:24.903Z,6.17
2017-08-25T04:20:52.594Z,5.97
2017-08-25T04:23:20.238Z,6.20
2017-08-25T04:25:48.315Z,6.40
2017-08-25T04:28:15.957Z,7.30
2017-08-25T04:30:44.146Z,5.93
2017-08-25T04:33:11.776Z,6.10
2017-08-25T04:35:39.404Z,6.83
2017-08-25T04:38:07.057Z,6.50
2017-08-25T04:40:34.684Z,6.73
2017-08-25T04:43:02.341Z,6.13
2017-08-25T04:45:30.007Z,5.57
2017-08-25T04:47:57.669Z,7.10
2017-08-25T04:50:25.396Z,6.87
2017-08-25T04:52:53.053Z,6.37
2017-08-25T04:55:20.796Z,6.47
2017-08-25T04:57:48.467Z,5.80
2017-08-25T05:00:16.118Z,6.07
2017-08-25T05:02:43.974Z,6.13
2017-08-25T05:05:11.708Z,5.73
2017-08-25T05:07:39.345Z,6.47
2017-08-25T05:10:07.466Z,6.33
2017-08-25T05:12:35.095Z,6.33
2017-08-25T05:15:03.646Z,7.07
2017-08-25T05:17:32.042Z,6.30
2017-08-25T05:19:59.849Z,7.27
2017-08-25T05:22:27.465Z,7.27
2017-08-25T05:24:55.665Z,7.77
2017-08-25T05:27:23.299Z,7.60
2017-08-25T05:29:50.962Z,6.30
2017-08-25T05:32:18.607Z,6.43
2017-08-25T05:34:46.373Z,6.10
2017-08-25T05:37:14.505Z,6.30
2017-08-25T05:39:42.171Z,5.90
2017-08-25T05:42:09.954Z,5.40
2017-08-25T05:44:38.167Z,6.30
2017-08-25T05:47:05.999Z,6.03
2017-08-25T05:49:33.646Z,6.13
2017-08-25T05:52:01.766Z,6.03
2017-08-25T05:54:29.597Z,6.07
2017-08-25T05:56:57.243Z,5.93
2017-08-25T05:59:25.405Z,5.70
2017-08-25T06:01:53.057Z,6.00
2017-08-25T06:04:20.717Z,6.00
2017-08-25T06:06:48.834Z,5.97
2017-08-25T06:09:16.460Z,5.47
2017-08-25T06:11:44.103Z,6.33
2017-08-25T06:14:12.167Z,6.30
2017-08-25T06:16:39.833Z,6.60
2017-08-25T06:19:07.973Z,6.20
2017-08-25T06:21:36.068Z,5.87
2017-08-25T06:24:03.706Z,5.80
2017-08-25T06:26:31.352Z,5.73
2017-08-25T06:28:59.456Z,6.23
2017-08-25T06:31:27.158Z,6.80
2017-08-25T06:33:54.786Z,5.40
2017-08-25T06:36:22.849Z,6.13
2017-08-25T06:38:50.475Z,5.47
2017-08-25T06:41:18.129Z,5.13
2017-08-25T06:43:46.152Z,4.97
2017-08-25T06:46:13.813Z,4.80
2017-08-25T06:48:41.466Z,4.57
2017-08-25T06:51:09.552Z,4.63
2017-08-25T06:53:37.215Z,3.73
2017-08-25T06:56:04.884Z,4.40
2017-08-25T06:58:32.890Z,4.40
2017-08-25T07:01:00.551Z,4.00
2017-08-25T07:03:28.190Z,4.80
2017-08-25T07:05:56.338Z,4.00
2017-08-25T07:08:23.976Z,4.60
2017-08-25T07:10:51.628Z,5.00
2017-08-25T07:13:19.630Z,4.50
2017-08-25T07:15:48.849Z,4.10
2017-08-25T07:18:16.485Z,4.13
2017-08-25T07:20:44.564Z,4.53
2017-08-25T07:23:12.488Z,4.20
2017-08-25T07:25:40.137Z,4.70
2017-08-25T07:28:08.169Z,3.80
2017-08-25T07:30:35.827Z,4.70
2017-08-25T07:33:04.272Z,4.17
2017-08-25T07:35:32.381Z,4.00
2017-08-25T07:38:00.097Z,4.23
2017-08-25T07:40:27.766Z,4.30
2017-08-25T07:42:55.843Z,3.80
2017-08-25T07:45:23.633Z,4.80
2017-08-25T07:47:52.043Z,3.70
2017-08-25T07:50:20.069Z,4.30
2017-08-25T07:52:47.874Z,4.60
2017-08-25T07:55:15.891Z,4.20
2017-08-25T08:00:03.843Z,3.63
2017-08-25T08:02:31.965Z,4.80
2017-08-25T08:04:59.612Z,3.90
2017-08-25T08:07:27.687Z,3.77
2017-08-25T08:09:55.333Z,3.90
2017-08-25T08:12:23.938Z,3.77
2017-08-25T08:14:51.935Z,4.00
2017-08-25T08:17:19.584Z,3.73
2017-08-25T08:19:47.241Z,3.73
2017-08-25T08:22:15.274Z,4.20
2017-08-25T08:24:42.903Z,3.23
2017-08-25T08:27:10.554Z,3.50
2017-08-25T08:29:38.653Z,3.80
2017-08-25T08:32:06.284Z,4.57
2017-08-25T08:34:33.910Z,4.20
2017-08-25T08:37:01.893Z,4.30
2017-08-25T08:39:29.534Z,5.30
2017-08-25T08:41:57.172Z,3.90
2017-08-25T08:44:25.269Z,4.53
2017-08-25T08:46:52.909Z,4.20
2017-08-25T08:49:20.598Z,4.33
2017-08-25T08:51:48.665Z,4.40
2017-08-25T08:54:16.296Z,4.00
2017-08-25T08:56:43.946Z,4.13
2017-08-25T08:59:12.041Z,4.20
2017-08-25T09:01:39.677Z,4.20
2017-08-25T09:04:07.314Z,3.40
2017-08-25T09:06:36.248Z,3.50
2017-08-25T09:09:03.879Z,4.13
2017-08-25T09:11:31.484Z,3.90
2017-08-25T09:13:59.536Z,3.53
2017-08-25T09:16:27.150Z,3.53
2017-08-25T09:18:54.766Z,4.23
2017-08-25T09:21:22.815Z,3.50
2017-08-25T09:23:50.409Z,3.07
2017-08-25T09:26:18.003Z,3.00
2017-08-25T09:28:46.004Z,3.60
2017-08-25T09:31:13.619Z,3.60
2017-08-25T09:33:41.218Z,3.00
2017-08-25T09:36:09.199Z,3.40
2017-08-25T09:38:38.022Z,3.50
2017-08-25T09:41:05.635Z,3.20
2017-08-25T09:43:33.726Z,3.63
2017-08-25T09:46:01.352Z,3.70
2017-08-25T09:48:28.982Z,3.50
2017-08-25T09:50:57.033Z,3.53
2017-08-25T09:53:24.643Z,3.87
2017-08-25T09:55:52.222Z,4.17
2017-08-25T09:58:20.231Z,4.20
2017-08-25T10:00:47.827Z,2.90
2017-08-25T10:03:15.442Z,3.10
2017-08-25T10:05:43.516Z,3.40
2017-08-25T10:08:14.024Z,3.00
2017-08-25T10:10:41.627Z,3.63
2017-08-25T10:13:09.669Z,3.57
2017-08-25T10:15:37.418Z,3.50
2017-08-25T10:18:05.070Z,3.13
2017-08-25T10:20:32.714Z,3.47
2017-08-25T10:23:00.322Z,2.97
2017-08-25T10:25:27.935Z,3.50
2017-08-25T10:27:55.551Z,2.80
2017-08-25T10:30:23.167Z,2.83
2017-08-25T10:32:50.833Z,2.83
2017-08-25T10:35:30.913Z,3.00
2017-08-25T10:38:10.275Z,2.73
2017-08-25T10:40:50.104Z,3.27
2017-08-25T10:43:29.387Z,2.90
2017-08-25T10:45:57.017Z,3.00
2017-08-25T10:48:24.631Z,3.10
2017-08-25T10:50:52.329Z,3.57
2017-08-25T10:53:19.942Z,2.83
2017-08-25T10:55:47.559Z,3.47
2017-08-25T10:58:15.217Z,3.15
2017-08-25T11:00:42.819Z,3.05
2017-08-25T11:03:10.798Z,3.50
2017-08-25T11:05:38.582Z,3.42
2017-08-25T11:08:06.198Z,3.05
2017-08-25T11:10:34.143Z,3.08
2017-08-25T11:13:01.976Z,3.07
2017-08-25T11:15:29.573Z,3.25
2017-08-25T11:17:57.972Z,3.50
2017-08-25T11:20:25.591Z,3.17
2017-08-25T11:22:53.230Z,2.73
2017-08-25T11:25:20.839Z,3.70
2017-08-25T11:27:48.813Z,2.90
2017-08-25T11:30:16.420Z,3.00
2017-08-25T11:32:44.058Z,3.80
2017-08-25T11:35:12.074Z,3.10
2017-08-25T11:37:40.160Z,3.50
2017-08-25T11:40:07.893Z,3.60
2017-08-25T11:42:35.874Z,2.70
2017-08-25T11:45:03.495Z,3.17
2017-08-25T11:47:31.394Z,3.40
2017-08-25T11:49:59.478Z,3.13
2017-08-25T11:52:27.079Z,2.60
2017-08-25T11:54:54.691Z,2.77
2017-08-25T11:57:23.024Z,3.00
2017-08-25T11:59:50.638Z,3.23
2017-08-25T12:02:18.246Z,3.30
2017-08-25T12:04:46.527Z,3.20
2017-08-25T12:07:14.241Z,3.30
2017-08-25T12:09:41.926Z,3.10
2017-08-25T12:12:13.613Z,3.73
2017-08-25T12:14:41.213Z,3.00
2017-08-25T12:17:08.833Z,3.30
2017-08-25T12:19:37.059Z,2.63
2017-08-25T12:22:04.668Z,3.40
2017-08-25T12:24:32.261Z,2.93
2017-08-25T12:27:00.298Z,3.07
2017-08-25T12:29:27.964Z,2.90
2017-08-25T12:31:55.892Z,4.03
2017-08-25T12:34:24.610Z,3.60
2017-08-25T12:36:52.218Z,3.53
2017-08-25T12:39:19.814Z,3.40
2017-08-25T12:41:47.787Z,3.60
2017-08-25T12:44:15.384Z,3.80
2017-08-25T12:46:42.982Z,3.60
2017-08-25T12:49:12.027Z,3.27
2017-08-25T12:51:39.697Z,3.07
2017-08-25T12:54:08.806Z,3.40
2017-08-25T12:56:37.648Z,3.33
2017-08-25T12:59:05.403Z,3.37
2017-08-25T13:01:33.026Z,3.93
2017-08-25T13:04:01.093Z,3.60
2017-08-25T13:06:28.698Z,3.97
2017-08-25T13:08:56.954Z,3.07
2017-08-25T13:11:25.012Z,3.60
2017-08-25T13:13:52.666Z,3.47
2017-08-25T13:16:20.494Z,3.70
2017-08-25T13:18:48.449Z,3.80
2017-08-25T13:21:16.062Z,3.67
2017-08-25T13:23:43.681Z,3.37
2017-08-25T13:26:11.317Z,3.33
2017-08-25T13:28:38.927Z,3.40
2017-08-25T13:31:06.934Z,3.73
2017-08-25T13:33:34.544Z,3.37
2017-08-25T13:36:02.161Z,3.93
2017-08-25T13:38:29.791Z,4.27
2017-08-25T13:40:57.398Z,3.50
2017-08-25T13:43:25.779Z,3.90
2017-08-25T13:45:53.386Z,3.63
2017-08-25T13:48:21.020Z,3.50
2017-08-25T13:50:48.623Z,3.40
2017-08-25T13:53:16.230Z,3.50
2017-08-25T13:55:43.863Z,3.60
2017-08-25T13:58:11.462Z,3.83
2017-08-25T14:00:39.087Z,3.57
2017-08-25T14:03:06.703Z,4.07
2017-08-25T14:05:34.327Z,4.10
2017-08-25T14:08:02.064Z,4.00
2017-08-25T14:10:30.187Z,3.80
2017-08-25T14:12:57.845Z,5.07
2017-08-25T14:15:25.960Z,3.97
2017-08-25T14:17:53.583Z,3.80
2017-08-25T14:20:21.190Z,4.10
2017-08-25T14:22:48.818Z,3.87
2017-08-25T14:25:16.504Z,3.97
2017-08-25T14:27:44.232Z,4.40
2017-08-25T14:30:11.853Z,3.43
2017-08-25T14:32:40.275Z,5.00
2017-08-25T14:35:07.907Z,3.90
2017-08-25T14:37:35.817Z,3.70
2017-08-25T14:40:03.454Z,3.57
2017-08-25T14:42:31.059Z,5.47
2017-08-25T14:44:58.757Z,4.67
2017-08-25T14:47:26.349Z,4.20
2017-08-25T14:49:54.355Z,4.87
2017-08-25T14:52:21.961Z,4.47
2017-08-25T14:54:49.586Z,3.63
2017-08-25T14:57:17.646Z,4.60
2017-08-25T14:59:45.290Z,4.63
2017-08-25T15:02:12.926Z,4.10
2017-08-25T15:04:40.947Z,4.10
2017-08-25T15:07:08.689Z,5.20
2017-08-25T15:09:36.884Z,4.33
2017-08-25T15:12:05.698Z,4.20
2017-08-25T15:14:34.829Z,3.87
2017-08-25T15:17:02.500Z,4.27
2017-08-25T15:19:30.583Z,4.73
2017-08-25T15:21:58.205Z,3.90
2017-08-25T15:24:25.861Z,3.93
2017-08-25T15:26:53.920Z,4.43
2017-08-25T15:29:21.544Z,4.03
2017-08-25T15:31:49.190Z,4.00
2017-08-25T15:34:17.307Z,4.00
2017-08-25T15:36:44.932Z,5.07
2017-08-25T15:39:12.538Z,4.30
2017-08-25T15:41:40.617Z,4.37
2017-08-25T15:44:08.252Z,4.20
2017-08-25T15:46:35.994Z,4.33
2017-08-25T15:49:04.107Z,3.83
2017-08-25T15:51:31.741Z,4.50
2017-08-25T15:53:59.377Z,4.40
2017-08-25T15:56:27.381Z,4.23
2017-08-25T15:58:55.010Z,9.50
2017-08-25T16:01:23.987Z,5.13
2017-08-25T16:03:52.057Z,4.27
2017-08-25T16:06:19.731Z,4.17
2017-08-25T16:08:47.346Z,4.03
2017-08-25T16:11:15.381Z,4.80
2017-08-25T16:13:43.309Z,4.30
2017-08-25T16:16:10.905Z,5.00
2017-08-25T16:18:38.990Z,5.27
2017-08-25T16:21:06.586Z,4.87
2017-08-25T16:23:34.225Z,4.50
2017-08-25T16:26:02.255Z,4.80
2017-08-25T16:28:29.875Z,4.93
2017-08-25T16:30:58.267Z,5.40
2017-08-25T16:33:26.338Z,5.13
2017-08-25T16:35:53.951Z,4.47
2017-08-25T16:38:21.563Z,4.37
2017-08-25T16:40:49.598Z,4.80
2017-08-25T16:43:17.218Z,4.27
2017-08-25T16:45:44.815Z,3.80
2017-08-25T16:48:12.877Z,4.53
2017-08-25T16:50:40.473Z,3.90
2017-08-25T16:53:08.074Z,4.80
2017-08-25T16:55:37.330Z,4.37
2017-08-25T16:58:04.929Z,5.23
2017-08-25T17:00:32.599Z,4.20
2017-08-25T17:03:00.564Z,4.77
2017-08-25T17:05:28.239Z,5.70
2017-08-25T17:07:55.849Z,4.97
2017-08-25T17:10:23.890Z,5.00
2017-08-25T17:12:51.477Z,4.50
2017-08-25T17:15:19.077Z,4.80
2017-08-25T17:17:47.050Z,4.10
2017-08-25T17:20:14.658Z,4.67
2017-08-25T17:22:42.311Z,5.10
2017-08-25T17:25:10.384Z,5.13
2017-08-25T17:27:37.985Z,5.23
2017-08-25T17:30:06.387Z,5.37
2017-08-25T17:32:34.488Z,5.63
2017-08-25T17:35:02.098Z,6.03
2017-08-25T17:37:30.288Z,6.03
2017-08-25T17:39:58.318Z,5.30
2017-08-25T17:42:25.922Z,6.17
2017-08-25T17:44:53.736Z,5.90
2017-08-25T17:47:21.795Z,5.40
2017-08-25T17:49:49.398Z,5.20
2017-08-25T17:52:17.010Z,5.00
2017-08-25T17:54:44.976Z,5.47
2017-08-25T17:57:12.597Z,5.10
2017-08-25T17:59:40.204Z,4.87
2017-08-25T18:02:08.276Z,5.80
2017-08-25T18:04:35.887Z,4.67
2017-08-25T18:07:03.515Z,4.33
2017-08-25T18:09:31.587Z,5.10
2017-08-25T18:11:59.233Z,5.10
2017-08-25T18:14:26.845Z,4.97
2017-08-25T18:16:54.857Z,5.80
2017-08-25T18:19:22.502Z,4.93
2017-08-25T18:21:50.104Z,5.53
2017-08-25T18:24:18.164Z,5.87
2017-08-25T18:26:45.756Z,5.60
2017-08-25T18:29:13.375Z,5.20
2017-08-25T18:31:41.342Z,6.03
2017-08-25T18:34:08.965Z,5.00
2017-08-25T18:36:36.575Z,4.87
2017-08-25T18:39:04.656Z,6.27
2017-08-25T18:41:33.049Z,7.00
2017-08-25T18:44:00.672Z,5.77
2017-08-25T18:46:28.661Z,5.37
2017-08-25T18:48:56.279Z,5.70
2017-08-25T18:51:24.098Z,5.30
2017-08-25T18:53:52.136Z,5.93
2017-08-25T18:56:20.596Z,5.77
2017-08-25T18:58:48.301Z,5.20
2017-08-25T19:01:16.550Z,5.10
2017-08-25T19:03:44.186Z,5.77
2017-08-25T19:06:11.809Z,5.77
2017-08-25T19:08:39.794Z,6.10
2017-08-25T19:11:08.032Z,5.23
2017-08-25T19:13:35.725Z,5.90
2017-08-25T19:16:03.774Z,6.67
2017-08-25T19:18:34.627Z,6.43
2017-08-25T19:21:06.434Z,5.27
2017-08-25T19:23:34.474Z,5.53
2017-08-25T19:26:02.071Z,5.90
2017-08-25T19:28:30.268Z,5.40
2017-08-25T19:30:58.286Z,6.00
2017-08-25T19:33:26.043Z,5.97
2017-08-25T19:35:54.090Z,6.40
2017-08-25T19:38:21.724Z,5.60
2017-08-25T19:40:49.309Z,6.07
2017-08-25T19:43:17.363Z,6.00
2017-08-25T19:45:45.091Z,6.53
2017-08-25T19:48:13.595Z,6.07
2017-08-25T19:50:41.591Z,5.87
2017-08-25T19:53:09.199Z,5.87
2017-08-25T19:55:36.810Z,5.90
2017-08-25T19:58:04.889Z,5.73
2017-08-25T20:00:32.586Z,6.10
2017-08-25T20:03:00.342Z,6.33
2017-08-25T20:05:28.361Z,6.40
2017-08-25T20:07:55.965Z,6.13
2017-08-25T20:10:23.574Z,6.90
2017-08-25T20:12:51.702Z,6.07
2017-08-25T20:15:19.310Z,6.30
2017-08-25T20:17:46.934Z,5.63
2017-08-25T20:20:14.957Z,6.70
2017-08-25T20:22:42.596Z,5.87
2017-08-25T20:25:10.207Z,6.40
2017-08-25T20:27:38.241Z,5.80
2017-08-25T20:30:06.732Z,6.47
2017-08-25T20:32:35.143Z,6.37
2017-08-25T20:35:03.173Z,7.83
2017-08-25T20:37:30.805Z,6.13
2017-08-25T20:39:58.427Z,5.60
2017-08-25T20:42:26.436Z,6.57
2017-08-25T20:44:54.069Z,6.20
2017-08-25T20:47:21.683Z,6.30
2017-08-25T20:49:49.759Z,6.27
2017-08-25T20:52:18.202Z,6.60
2017-08-25T20:54:45.797Z,6.33
2017-08-25T20:57:13.755Z,5.80
2017-08-25T20:59:41.377Z,6.57
2017-08-25T21:02:09.021Z,6.30
2017-08-25T21:04:36.975Z,6.30
2017-08-25T21:07:04.594Z,6.80
2017-08-25T21:09:32.205Z,6.73
2017-08-25T21:12:00.970Z,6.00
2017-08-25T21:14:28.607Z,6.60
2017-08-25T21:16:56.209Z,6.10
2017-08-25T21:19:24.332Z,5.80
2017-08-25T21:21:51.933Z,6.10
2017-08-25T21:24:19.523Z,6.77
2017-08-25T21:26:47.926Z,6.60
2017-08-25T21:29:15.537Z,7.70
2017-08-25T21:31:43.165Z,6.77
2017-08-25T21:34:11.166Z,5.37
2017-08-25T21:36:38.784Z,6.47
2017-08-25T21:39:06.675Z,6.00
2017-08-25T21:41:34.657Z,6.47
2017-08-25T21:44:02.261Z,6.53
2017-08-25T21:46:29.865Z,6.03
2017-08-25T21:48:57.884Z,5.60
2017-08-25T21:51:25.506Z,6.30
2017-08-25T21:53:53.119Z,7.07
2017-08-25T21:56:21.148Z,6.77
2017-08-25T21:58:48.760Z,7.43
2017-08-25T22:01:17.190Z,7.17
2017-08-25T22:03:45.345Z,6.83
2017-08-25T22:06:12.953Z,6.90
2017-08-25T22:08:40.566Z,6.80
2017-08-25T22:11:08.549Z,7.13
2017-08-25T22:13:36.158Z,7.03
2017-08-25T22:16:03.841Z,7.17
2017-08-25T22:18:31.858Z,7.47
2017-08-25T22:20:59.471Z,7.67
2017-08-25T22:23:27.064Z,7.10
2017-08-25T22:25:54.776Z,7.27
2017-08-25T22:28:22.379Z,8.43
